sensor_id;sensor_type;location;lat;lon;timestamp;pressure;altitude;pressure_sealevel;temperature;humidity
80927;BME280;70385;44.538;18.532;2023-12-14T00:02:18;98162.00;;;7.48;100.00
80927;BME280;70385;44.538;18.532;2023-12-14T00:04:44;98168.13;;;7.47;100.00
80927;BME280;70385;44.538;18.532;2023-12-14T00:07:10;98181.16;;;7.47;100.00
80927;BME280;70385;44.538;18.532;2023-12-14T00:09:40;98169.06;;;7.46;100.00
80927;BME280;70385;44.538;18.532;2023-12-14T00:12:06;98172.41;;;7.48;100.00
80927;BME280;70385;44.538;18.532;2023-12-14T00:14:32;98159.31;;;7.50;100.00
80927;BME280;70385;44.538;18.532;2023-12-14T00:16:58;98150.84;;;7.46;100.00
80927;BME280;70385;44.538;18.532;2023-12-14T00:19:24;98162.78;;;7.50;100.00
80927;BME280;70385;44.538;18.532;2023-12-14T00:21:53;98156.81;;;7.48;100.00
80927;BME280;70385;44.538;18.532;2023-12-14T00:24:19;98155.97;;;7.48;100.00
80927;BME280;70385;44.538;18.532;2023-12-14T00:26:46;98165.38;;;7.50;100.00
80927;BME280;70385;44.538;18.532;2023-12-14T00:29:21;98146.72;;;7.42;100.00
80927;BME280;70385;44.538;18.532;2023-12-14T00:31:51;98147.31;;;7.47;100.00
80927;BME280;70385;44.538;18.532;2023-12-14T00:34:16;98169.75;;;7.50;100.00
80927;BME280;70385;44.538;18.532;2023-12-14T00:36:42;98165.69;;;7.44;100.00
80927;BME280;70385;44.538;18.532;2023-12-14T00:39:08;98181.16;;;7.47;100.00
80927;BME280;70385;44.538;18.532;2023-12-14T00:41:36;98174.59;;;7.40;100.00
80927;BME280;70385;44.538;18.532;2023-12-14T00:44:02;98176.44;;;7.38;100.00
80927;BME280;70385;44.538;18.532;2023-12-14T00:46:28;98178.94;;;7.40;100.00
80927;BME280;70385;44.538;18.532;2023-12-14T00:48:54;98175.34;;;7.42;100.00
80927;BME280;70385;44.538;18.532;2023-12-14T00:51:20;98175.34;;;7.42;100.00
80927;BME280;70385;44.538;18.532;2023-12-14T00:53:46;98181.47;;;7.41;100.00
80927;BME280;70385;44.538;18.532;2023-12-14T00:56:12;98184.00;;;7.43;100.00
80927;BME280;70385;44.538;18.532;2023-12-14T00:58:40;98176.09;;;7.44;100.00
80927;BME280;70385;44.538;18.532;2023-12-14T01:01:05;98171.06;;;7.41;100.00
80927;BME280;70385;44.538;18.532;2023-12-14T01:03:33;98158.72;;;7.45;100.00
80927;BME280;70385;44.538;18.532;2023-12-14T01:05:59;98177.78;;;7.45;100.00
80927;BME280;70385;44.538;18.532;2023-12-14T01:08:24;98178.72;;;7.44;100.00
80927;BME280;70385;44.538;18.532;2023-12-14T01:10:51;98167.38;;;7.45;100.00
80927;BME280;70385;44.538;18.532;2023-12-14T01:13:17;98189.72;;;7.49;100.00
80927;BME280;70385;44.538;18.532;2023-12-14T01:15:43;98177.78;;;7.45;100.00
80927;BME280;70385;44.538;18.532;2023-12-14T01:18:09;98176.94;;;7.45;100.00
80927;BME280;70385;44.538;18.532;2023-12-14T01:20:35;98162.00;;;7.48;100.00
80927;BME280;70385;44.538;18.532;2023-12-14T01:23:01;98166.22;;;7.51;100.00
80927;BME280;70385;44.538;18.532;2023-12-14T01:25:26;98159.56;;;7.45;100.00
80927;BME280;70385;44.538;18.532;2023-12-14T01:27:52;98173.34;;;7.47;100.00
80927;BME280;70385;44.538;18.532;2023-12-14T01:30:18;98160.41;;;7.46;100.00
80927;BME280;70385;44.538;18.532;2023-12-14T01:32:43;98154.53;;;7.42;100.00
80927;BME280;70385;44.538;18.532;2023-12-14T01:35:10;98163.19;;;7.43;100.00
80927;BME280;70385;44.538;18.532;2023-12-14T01:37:35;98195.84;;;7.48;100.00
80927;BME280;70385;44.538;18.532;2023-12-14T01:40:01;98200.28;;;7.46;100.00
80927;BME280;70385;44.538;18.532;2023-12-14T01:42:27;98190.47;;;7.51;100.00
80927;BME280;70385;44.538;18.532;2023-12-14T01:44:53;98175.69;;;7.52;100.00
80927;BME280;70385;44.538;18.532;2023-12-14T01:47:19;98172.41;;;7.48;100.00
80927;BME280;70385;44.538;18.532;2023-12-14T01:49:46;98174.09;;;7.49;100.00
80927;BME280;70385;44.538;18.532;2023-12-14T01:52:11;98187.19;;;7.48;100.00
80927;BME280;70385;44.538;18.532;2023-12-14T01:54:37;98175.94;;;7.47;100.00
80927;BME280;70385;44.538;18.532;2023-12-14T01:57:03;98190.56;;;7.50;100.00
80927;BME280;70385;44.538;18.532;2023-12-14T01:59:29;98186.44;;;7.46;100.00
80927;BME280;70385;44.538;18.532;2023-12-14T02:01:56;98188.13;;;7.47;100.00
80927;BME280;70385;44.538;18.532;2023-12-14T02:04:25;98187.28;;;7.46;100.00
80927;BME280;70385;44.538;18.532;2023-12-14T02:06:52;98194.16;;;7.47;100.00
80927;BME280;70385;44.538;18.532;2023-12-14T02:09:18;98187.50;;;7.42;100.00
80927;BME280;70385;44.538;18.532;2023-12-14T02:11:43;98185.69;;;7.44;100.00
80927;BME280;70385;44.538;18.532;2023-12-14T02:14:09;98194.47;;;7.41;100.00
80927;BME280;70385;44.538;18.532;2023-12-14T02:16:36;98198.78;;;7.42;100.00
80927;BME280;70385;44.538;18.532;2023-12-14T02:19:04;98193.72;;;7.39;100.00
80927;BME280;70385;44.538;18.532;2023-12-14T02:21:30;98215.38;;;7.40;100.00
80927;BME280;70385;44.538;18.532;2023-12-14T02:23:57;98226.47;;;7.43;100.00
80927;BME280;70385;44.538;18.532;2023-12-14T02:26:22;98212.69;;;7.41;100.00
80927;BME280;70385;44.538;18.532;2023-12-14T02:28:48;98204.13;;;7.39;100.00
80927;BME280;70385;44.538;18.532;2023-12-14T02:31:14;98200.94;;;7.34;100.00
80927;BME280;70385;44.538;18.532;2023-12-14T02:33:40;98194.03;;;7.33;100.00
80927;BME280;70385;44.538;18.532;2023-12-14T02:36:06;98190.44;;;7.36;100.00
80927;BME280;70385;44.538;18.532;2023-12-14T02:38:32;98189.53;;;7.37;100.00
80927;BME280;70385;44.538;18.532;2023-12-14T02:40:58;98178.34;;;7.35;100.00
80927;BME280;70385;44.538;18.532;2023-12-14T02:43:24;98150.69;;;7.32;100.00
80927;BME280;70385;44.538;18.532;2023-12-14T02:45:50;98149.72;;;7.35;100.00
80927;BME280;70385;44.538;18.532;2023-12-14T02:48:16;98153.59;;;7.43;100.00
80927;BME280;70385;44.538;18.532;2023-12-14T02:50:42;98167.53;;;7.42;100.00
80927;BME280;70385;44.538;18.532;2023-12-14T02:53:08;98177.78;;;7.45;100.00
80927;BME280;70385;44.538;18.532;2023-12-14T02:55:34;98190.13;;;7.42;100.00
80927;BME280;70385;44.538;18.532;2023-12-14T02:57:59;98194.56;;;7.40;100.00
80927;BME280;70385;44.538;18.532;2023-12-14T03:00:25;98226.03;;;7.52;100.00
80927;BME280;70385;44.538;18.532;2023-12-14T03:02:51;98238.13;;;7.53;100.00
80927;BME280;70385;44.538;18.532;2023-12-14T03:05:17;98251.41;;;7.47;100.00
80927;BME280;70385;44.538;18.532;2023-12-14T03:07:43;98255.72;;;7.48;100.00
80927;BME280;70385;44.538;18.532;2023-12-14T03:10:10;98253.19;;;7.47;100.00
80927;BME280;70385;44.538;18.532;2023-12-14T03:12:36;98222.88;;;7.46;100.00
80927;BME280;70385;44.538;18.532;2023-12-14T03:15:02;98205.81;;;7.40;100.00
80927;BME280;70385;44.538;18.532;2023-12-14T03:17:28;98220.34;;;7.44;100.00
80927;BME280;70385;44.538;18.532;2023-12-14T03:19:54;98213.13;;;7.49;100.00
80927;BME280;70385;44.538;18.532;2023-12-14T03:22:20;98210.53;;;7.49;100.00
80927;BME280;70385;44.538;18.532;2023-12-14T03:24:45;98197.31;;;7.54;100.00
80927;BME280;70385;44.538;18.532;2023-12-14T03:27:11;98202.44;;;7.55;100.00
80927;BME280;70385;44.538;18.532;2023-12-14T03:29:37;98204.50;;;7.49;100.00
80927;BME280;70385;44.538;18.532;2023-12-14T03:32:03;98205.41;;;7.48;100.00
80927;BME280;70385;44.538;18.532;2023-12-14T03:34:29;98194.78;;;7.52;100.00
80927;BME280;70385;44.538;18.532;2023-12-14T03:36:55;98169.44;;;7.56;100.00
80927;BME280;70385;44.538;18.532;2023-12-14T03:39:21;98146.94;;;7.55;100.00
80927;BME280;70385;44.538;18.532;2023-12-14T03:41:46;98122.75;;;7.53;100.00
80927;BME280;70385;44.538;18.532;2023-12-14T03:44:12;98114.88;;;7.54;100.00
80927;BME280;70385;44.538;18.532;2023-12-14T03:46:38;98111.34;;;7.55;100.00
80927;BME280;70385;44.538;18.532;2023-12-14T03:49:04;98134.00;;;7.53;100.00
80927;BME280;70385;44.538;18.532;2023-12-14T03:51:30;98133.69;;;7.59;100.00
80927;BME280;70385;44.538;18.532;2023-12-14T03:53:59;98157.09;;;7.59;100.00
80927;BME280;70385;44.538;18.532;2023-12-14T03:56:25;98173.66;;;7.58;100.00
80927;BME280;70385;44.538;18.532;2023-12-14T03:58:51;98161.38;;;7.60;100.00
80927;BME280;70385;44.538;18.532;2023-12-14T04:01:20;98166.69;;;7.59;100.00
80927;BME280;70385;44.538;18.532;2023-12-14T04:03:47;98171.41;;;7.51;100.00
80927;BME280;70385;44.538;18.532;2023-12-14T04:06:14;98190.72;;;7.47;100.00
80927;BME280;70385;44.538;18.532;2023-12-14T04:08:41;98199.59;;;7.43;100.00
80927;BME280;70385;44.538;18.532;2023-12-14T04:11:07;98189.44;;;7.38;100.00
80927;BME280;70385;44.538;18.532;2023-12-14T04:13:33;98185.31;;;7.34;100.00
80927;BME280;70385;44.538;18.532;2023-12-14T04:16:00;98190.97;;;7.25;100.00
80927;BME280;70385;44.538;18.532;2023-12-14T04:18:26;98205.72;;;7.24;100.00
80927;BME280;70385;44.538;18.532;2023-12-14T04:20:52;98212.84;;;7.21;100.00
80927;BME280;70385;44.538;18.532;2023-12-14T04:23:17;98239.94;;;7.17;100.00
80927;BME280;70385;44.538;18.532;2023-12-14T04:25:44;98254.78;;;7.15;100.00
80927;BME280;70385;44.538;18.532;2023-12-14T04:28:10;98249.69;;;7.12;100.00
80927;BME280;70385;44.538;18.532;2023-12-14T04:30:36;98238.69;;;7.07;100.00
80927;BME280;70385;44.538;18.532;2023-12-14T04:33:02;98254.00;;;7.13;100.00
80927;BME280;70385;44.538;18.532;2023-12-14T04:35:28;98266.53;;;7.05;100.00
80927;BME280;70385;44.538;18.532;2023-12-14T04:37:53;98261.34;;;7.05;100.00
80927;BME280;70385;44.538;18.532;2023-12-14T04:40:19;98257.97;;;7.03;100.00
80927;BME280;70385;44.538;18.532;2023-12-14T04:42:45;98246.94;;;6.97;100.00
80927;BME280;70385;44.538;18.532;2023-12-14T04:45:10;98262.25;;;7.04;100.00
80927;BME280;70385;44.538;18.532;2023-12-14T04:47:37;98265.91;;;6.99;100.00
80927;BME280;70385;44.538;18.532;2023-12-14T04:50:06;98281.03;;;6.91;100.00
80927;BME280;70385;44.538;18.532;2023-12-14T04:52:32;98286.22;;;6.91;100.00
80927;BME280;70385;44.538;18.532;2023-12-14T04:54:58;98278.66;;;6.87;100.00
80927;BME280;70385;44.538;18.532;2023-12-14T04:57:24;98297.75;;;6.86;100.00
80927;BME280;70385;44.538;18.532;2023-12-14T04:59:50;98294.41;;;6.84;100.00
80927;BME280;70385;44.538;18.532;2023-12-14T05:02:15;98300.13;;;6.90;100.00
80927;BME280;70385;44.538;18.532;2023-12-14T05:04:41;98306.41;;;6.86;100.00
80927;BME280;70385;44.538;18.532;2023-12-14T05:07:07;98317.88;;;6.82;100.00
80927;BME280;70385;44.538;18.532;2023-12-14T05:09:33;98299.75;;;6.81;100.00
80927;BME280;70385;44.538;18.532;2023-12-14T05:11:58;98299.81;;;6.79;100.00
80927;BME280;70385;44.538;18.532;2023-12-14T05:14:24;98312.81;;;6.79;100.00
80927;BME280;70385;44.538;18.532;2023-12-14T05:16:50;98308.47;;;6.80;100.00
80927;BME280;70385;44.538;18.532;2023-12-14T05:19:16;98314.66;;;6.77;100.00
80927;BME280;70385;44.538;18.532;2023-12-14T05:21:42;98312.97;;;6.76;100.00
80927;BME280;70385;44.538;18.532;2023-12-14T05:24:09;98323.63;;;6.70;100.00
80927;BME280;70385;44.538;18.532;2023-12-14T05:26:35;98339.91;;;6.74;100.00
80927;BME280;70385;44.538;18.532;2023-12-14T05:29:01;98346.78;;;6.75;100.00
80927;BME280;70385;44.538;18.532;2023-12-14T05:31:27;98352.06;;;6.73;100.00
80927;BME280;70385;44.538;18.532;2023-12-14T05:33:53;98347.94;;;6.69;100.00
80927;BME280;70385;44.538;18.532;2023-12-14T05:36:18;98355.88;;;6.66;100.00
80927;BME280;70385;44.538;18.532;2023-12-14T05:38:50;98350.53;;;6.69;100.00
80927;BME280;70385;44.538;18.532;2023-12-14T05:41:16;98365.44;;;6.65;100.00
80927;BME280;70385;44.538;18.532;2023-12-14T05:43:42;98362.81;;;6.65;100.00
80927;BME280;70385;44.538;18.532;2023-12-14T05:46:08;98367.31;;;6.62;100.00
80927;BME280;70385;44.538;18.532;2023-12-14T05:48:33;98378.41;;;6.65;100.00
80927;BME280;70385;44.538;18.532;2023-12-14T05:51:00;98367.84;;;6.50;100.00
80927;BME280;70385;44.538;18.532;2023-12-14T05:53:26;98371.38;;;6.49;100.00
80927;BME280;70385;44.538;18.532;2023-12-14T05:55:52;98369.41;;;6.54;100.00
80927;BME280;70385;44.538;18.532;2023-12-14T05:58:28;98374.59;;;6.54;100.00
80927;BME280;70385;44.538;18.532;2023-12-14T06:00:54;98387.06;;;6.66;100.00
80927;BME280;70385;44.538;18.532;2023-12-14T06:03:22;98391.78;;;6.58;100.00
80927;BME280;70385;44.538;18.532;2023-12-14T06:05:48;98392.53;;;6.60;100.00
80927;BME280;70385;44.538;18.532;2023-12-14T06:08:13;98399.28;;;6.64;100.00
80927;BME280;70385;44.538;18.532;2023-12-14T06:10:47;98397.47;;;6.66;100.00
80927;BME280;70385;44.538;18.532;2023-12-14T06:16:27;98421.34;;;6.74;100.00
80927;BME280;70385;44.538;18.532;2023-12-14T06:18:53;98423.06;;;6.75;100.00
80927;BME280;70385;44.538;18.532;2023-12-14T06:21:19;98435.94;;;6.78;100.00
80927;BME280;70385;44.538;18.532;2023-12-14T06:23:46;98432.47;;;6.78;100.00
80927;BME280;70385;44.538;18.532;2023-12-14T06:26:12;98435.94;;;6.78;100.00
80927;BME280;70385;44.538;18.532;2023-12-14T06:28:39;98447.94;;;6.81;100.00
80927;BME280;70385;44.538;18.532;2023-12-14T06:31:05;98434.09;;;6.80;100.00
80927;BME280;70385;44.538;18.532;2023-12-14T06:33:33;98433.19;;;6.81;100.00
80927;BME280;70385;44.538;18.532;2023-12-14T06:36:03;98441.81;;;6.82;100.00
80927;BME280;70385;44.538;18.532;2023-12-14T06:38:30;98444.34;;;6.83;100.00
80927;BME280;70385;44.538;18.532;2023-12-14T06:40:56;98452.16;;;6.83;100.00
80927;BME280;70385;44.538;18.532;2023-12-14T06:43:22;98459.97;;;6.83;100.00
80927;BME280;70385;44.538;18.532;2023-12-14T06:45:48;98473.72;;;6.85;100.00
80927;BME280;70385;44.538;18.532;2023-12-14T06:48:14;98463.34;;;6.85;100.00
80927;BME280;70385;44.538;18.532;2023-12-14T06:50:40;98463.41;;;6.84;100.00
80927;BME280;70385;44.538;18.532;2023-12-14T06:53:05;98477.81;;;6.91;100.00
80927;BME280;70385;44.538;18.532;2023-12-14T06:55:31;98489.06;;;6.91;100.00
80927;BME280;70385;44.538;18.532;2023-12-14T06:57:57;98494.25;;;6.91;100.00
80927;BME280;70385;44.538;18.532;2023-12-14T07:00:23;98500.38;;;6.90;100.00
80927;BME280;70385;44.538;18.532;2023-12-14T07:02:49;98500.38;;;6.90;100.00
80927;BME280;70385;44.538;18.532;2023-12-14T07:05:15;98513.38;;;6.90;100.00
80927;BME280;70385;44.538;18.532;2023-12-14T07:07:41;98517.78;;;6.88;100.00
80927;BME280;70385;44.538;18.532;2023-12-14T07:10:07;98524.63;;;6.91;100.00
80927;BME280;70385;44.538;18.532;2023-12-14T07:12:33;98518.56;;;6.90;100.00
80927;BME280;70385;44.538;18.532;2023-12-14T07:14:58;98509.09;;;6.89;100.00
80927;BME280;70385;44.538;18.532;2023-12-14T07:17:24;98517.59;;;6.93;100.00
80927;BME280;70385;44.538;18.532;2023-12-14T07:19:51;98520.16;;;6.94;100.00
80927;BME280;70385;44.538;18.532;2023-12-14T07:22:17;98528.38;;;7.04;100.00
80927;BME280;70385;44.538;18.532;2023-12-14T07:24:45;98527.66;;;7.21;100.00
80927;BME280;70385;44.538;18.532;2023-12-14T07:27:11;98533.19;;;7.32;100.00
80927;BME280;70385;44.538;18.532;2023-12-14T07:29:38;98535.63;;;7.37;100.00
80927;BME280;70385;44.538;18.532;2023-12-14T07:32:04;98542.31;;;7.42;100.00
80927;BME280;70385;44.538;18.532;2023-12-14T07:34:33;98543.91;;;7.45;100.00
80927;BME280;70385;44.538;18.532;2023-12-14T07:36:59;98548.84;;;7.51;100.00
80927;BME280;70385;44.538;18.532;2023-12-14T07:39:25;98560.91;;;7.53;100.00
80927;BME280;70385;44.538;18.532;2023-12-14T07:41:52;98568.56;;;7.56;100.00
80927;BME280;70385;44.538;18.532;2023-12-14T07:44:18;98569.34;;;7.58;100.00
80927;BME280;70385;44.538;18.532;2023-12-14T07:46:43;98583.13;;;7.60;100.00
80927;BME280;70385;44.538;18.532;2023-12-14T07:49:09;98586.66;;;7.59;100.00
80927;BME280;70385;44.538;18.532;2023-12-14T07:51:35;98591.91;;;7.58;100.00
80927;BME280;70385;44.538;18.532;2023-12-14T07:54:01;98599.88;;;7.55;100.00
80927;BME280;70385;44.538;18.532;2023-12-14T07:56:33;98599.13;;;7.51;100.00
80927;BME280;70385;44.538;18.532;2023-12-14T07:59:02;98609.22;;;7.59;100.00
80927;BME280;70385;44.538;18.532;2023-12-14T08:01:32;98611.28;;;7.52;100.00
80927;BME280;70385;44.538;18.532;2023-12-14T08:03:57;98617.34;;;7.51;100.00
80927;BME280;70385;44.538;18.532;2023-12-14T08:06:23;98620.09;;;7.48;100.00
80927;BME280;70385;44.538;18.532;2023-12-14T08:08:49;98620.03;;;7.50;100.00
80927;BME280;70385;44.538;18.532;2023-12-14T08:11:15;98618.41;;;7.47;100.00
80927;BME280;70385;44.538;18.532;2023-12-14T08:13:43;98616.88;;;7.43;100.00
80927;BME280;70385;44.538;18.532;2023-12-14T08:16:09;98630.50;;;7.48;100.00
80927;BME280;70385;44.538;18.532;2023-12-14T08:18:38;98641.19;;;7.42;100.00
80927;BME280;70385;44.538;18.532;2023-12-14T08:21:04;98643.75;;;7.44;100.00
80927;BME280;70385;44.538;18.532;2023-12-14T08:23:30;98641.19;;;7.42;100.00
80927;BME280;70385;44.538;18.532;2023-12-14T08:25:57;98644.72;;;7.41;100.00
80927;BME280;70385;44.538;18.532;2023-12-14T08:28:24;98655.91;;;7.43;100.00
80927;BME280;70385;44.538;18.532;2023-12-14T08:30:51;98650.78;;;7.42;100.00
80927;BME280;70385;44.538;18.532;2023-12-14T08:33:17;98657.25;;;7.31;100.00
80927;BME280;70385;44.538;18.532;2023-12-14T08:35:46;98664.63;;;7.22;100.00
80927;BME280;70385;44.538;18.532;2023-12-14T08:38:12;98652.81;;;7.15;100.00
80927;BME280;70385;44.538;18.532;2023-12-14T08:40:39;98670.16;;;7.14;100.00
80927;BME280;70385;44.538;18.532;2023-12-14T08:43:04;98673.84;;;7.09;100.00
80927;BME280;70385;44.538;18.532;2023-12-14T08:45:30;98678.91;;;7.12;100.00
80927;BME280;70385;44.538;18.532;2023-12-14T08:47:56;98676.44;;;7.09;100.00
80927;BME280;70385;44.538;18.532;2023-12-14T08:50:22;98688.81;;;7.04;100.00
80927;BME280;70385;44.538;18.532;2023-12-14T08:52:48;98684.38;;;7.06;100.00
80927;BME280;70385;44.538;18.532;2023-12-14T08:55:14;98690.50;;;7.05;100.00
80927;BME280;70385;44.538;18.532;2023-12-14T08:57:40;98695.78;;;7.03;100.00
80927;BME280;70385;44.538;18.532;2023-12-14T09:00:06;98683.59;;;7.04;100.00
80927;BME280;70385;44.538;18.532;2023-12-14T09:02:32;98695.78;;;7.03;100.00
80927;BME280;70385;44.538;18.532;2023-12-14T09:04:58;98689.78;;;7.01;100.00
80927;BME280;70385;44.538;18.532;2023-12-14T09:07:24;98686.22;;;7.04;100.00
80927;BME280;70385;44.538;18.532;2023-12-14T09:09:51;98695.78;;;7.03;100.00
80927;BME280;70385;44.538;18.532;2023-12-14T09:12:17;98699.78;;;7.10;100.00
80927;BME280;70385;44.538;18.532;2023-12-14T09:14:43;98703.06;;;7.15;100.00
80927;BME280;70385;44.538;18.532;2023-12-14T09:17:09;98700.47;;;7.15;100.00
80927;BME280;70385;44.538;18.532;2023-12-14T09:19:37;98705.06;;;7.09;100.00
80927;BME280;70385;44.538;18.532;2023-12-14T09:22:03;98708.22;;;7.17;100.00
80927;BME280;70385;44.538;18.532;2023-12-14T09:24:30;98709.78;;;7.21;100.00
80927;BME280;70385;44.538;18.532;2023-12-14T09:26:56;98710.75;;;7.18;100.00
80927;BME280;70385;44.538;18.532;2023-12-14T09:29:22;98725.66;;;7.15;100.00
80927;BME280;70385;44.538;18.532;2023-12-14T09:31:51;98726.03;;;7.26;100.00
80927;BME280;70385;44.538;18.532;2023-12-14T09:34:17;98722.72;;;7.22;100.00
80927;BME280;70385;44.538;18.532;2023-12-14T09:36:43;98722.00;;;7.19;100.00
80927;BME280;70385;44.538;18.532;2023-12-14T09:39:09;98725.13;;;7.27;100.00
80927;BME280;70385;44.538;18.532;2023-12-14T09:41:39;98717.88;;;7.35;100.00
80927;BME280;70385;44.538;18.532;2023-12-14T09:44:06;98732.03;;;7.48;100.00
80927;BME280;70385;44.538;18.532;2023-12-14T09:46:37;98725.06;;;7.49;100.00
80927;BME280;70385;44.538;18.532;2023-12-14T09:49:04;98734.75;;;7.45;100.00
80927;BME280;70385;44.538;18.532;2023-12-14T09:51:30;98738.75;;;7.54;100.00
80927;BME280;70385;44.538;18.532;2023-12-14T09:53:57;98741.44;;;7.52;100.00
80927;BME280;70385;44.538;18.532;2023-12-14T09:56:27;98729.50;;;7.47;100.00
80927;BME280;70385;44.538;18.532;2023-12-14T09:58:53;98737.16;;;7.50;100.00
80927;BME280;70385;44.538;18.532;2023-12-14T10:03:50;98736.22;;;7.52;100.00
80927;BME280;70385;44.538;18.532;2023-12-14T10:06:18;98742.56;;;7.45;100.00
80927;BME280;70385;44.538;18.532;2023-12-14T10:08:56;98742.19;;;7.34;100.00
80927;BME280;70385;44.538;18.532;2023-12-14T10:11:22;98746.09;;;7.44;100.00
80927;BME280;70385;44.538;18.532;2023-12-14T10:13:49;98742.84;;;7.39;100.00
80927;BME280;70385;44.538;18.532;2023-12-14T10:16:31;98741.94;;;7.40;100.00
80927;BME280;70385;44.538;18.532;2023-12-14T10:18:58;98747.28;;;7.37;100.00
80927;BME280;70385;44.538;18.532;2023-12-14T10:21:26;98743.75;;;7.38;100.00
80927;BME280;70385;44.538;18.532;2023-12-14T10:23:55;98754.03;;;7.41;100.00
80927;BME280;70385;44.538;18.532;2023-12-14T10:26:25;98754.94;;;7.40;100.00
80927;BME280;70385;44.538;18.532;2023-12-14T10:28:52;98746.88;;;7.46;100.00
80927;BME280;70385;44.538;18.532;2023-12-14T10:31:18;98751.44;;;7.41;100.00
80927;BME280;70385;44.538;18.532;2023-12-14T10:33:45;98743.75;;;7.38;100.00
80927;BME280;70385;44.538;18.532;2023-12-14T10:36:18;98748.81;;;7.41;100.00
80927;BME280;70385;44.538;18.532;2023-12-14T10:38:48;98753.13;;;7.42;100.00
80927;BME280;70385;44.538;18.532;2023-12-14T10:41:17;98753.69;;;7.49;100.00
80927;BME280;70385;44.538;18.532;2023-12-14T10:43:43;98765.09;;;7.46;100.00
80927;BME280;70385;44.538;18.532;2023-12-14T10:46:10;98764.66;;;7.57;100.00
80927;BME280;70385;44.538;18.532;2023-12-14T10:48:36;98773.25;;;7.59;100.00
80927;BME280;70385;44.538;18.532;2023-12-14T10:51:03;98780.34;;;7.55;100.00
80927;BME280;70385;44.538;18.532;2023-12-14T10:53:32;98775.84;;;7.59;100.00
80927;BME280;70385;44.538;18.532;2023-12-14T10:56:00;98777.47;;;7.61;100.00
80927;BME280;70385;44.538;18.532;2023-12-14T10:58:44;98785.56;;;7.55;100.00
80927;BME280;70385;44.538;18.532;2023-12-14T11:01:16;98783.84;;;7.54;100.00
80927;BME280;70385;44.538;18.532;2023-12-14T11:07:51;98779.56;;;7.53;100.00
80927;BME280;70385;44.538;18.532;2023-12-14T11:10:26;98776.16;;;7.51;100.00
80927;BME280;70385;44.538;18.532;2023-12-14T11:13:02;98785.00;;;7.47;100.00
80927;BME280;70385;44.538;18.532;2023-12-14T11:15:30;98787.88;;;7.41;100.00
80927;BME280;70385;44.538;18.532;2023-12-14T11:18:28;98786.44;;;7.34;100.00
80927;BME280;70385;44.538;18.532;2023-12-14T11:20:58;98791.66;;;7.34;100.00
80927;BME280;70385;44.538;18.532;2023-12-14T11:23:42;98805.44;;;7.36;100.00
80927;BME280;70385;44.538;18.532;2023-12-14T11:26:09;98807.41;;;7.29;100.00
80927;BME280;70385;44.538;18.532;2023-12-14T11:28:38;98802.28;;;7.28;100.00
80927;BME280;70385;44.538;18.532;2023-12-14T11:31:11;98799.31;;;7.37;100.00
80927;BME280;70385;44.538;18.532;2023-12-14T11:33:38;98805.59;;;7.31;100.00
80927;BME280;70385;44.538;18.532;2023-12-14T11:36:05;98801.16;;;7.35;100.00
80927;BME280;70385;44.538;18.532;2023-12-14T11:38:31;98797.38;;;7.42;100.00
80927;BME280;70385;44.538;18.532;2023-12-14T11:40:59;98799.97;;;7.42;100.00
80927;BME280;70385;44.538;18.532;2023-12-14T11:43:28;98805.69;;;7.50;100.00
80927;BME280;70385;44.538;18.532;2023-12-14T11:45:55;98812.78;;;7.47;100.00
80927;BME280;70385;44.538;18.532;2023-12-14T11:48:24;98812.44;;;7.56;100.00
80927;BME280;70385;44.538;18.532;2023-12-14T11:50:50;98808.91;;;7.57;100.00
80927;BME280;70385;44.538;18.532;2023-12-14T11:53:16;98805.59;;;7.53;100.00
80927;BME280;70385;44.538;18.532;2023-12-14T11:55:43;98814.47;;;7.48;100.00
80927;BME280;70385;44.538;18.532;2023-12-14T11:58:11;98811.72;;;7.52;100.00
80927;BME280;70385;44.538;18.532;2023-12-14T12:00:42;98811.16;;;7.44;100.00
80927;BME280;70385;44.538;18.532;2023-12-14T12:10:15;98817.47;;;7.39;100.00
80927;BME280;70385;44.538;18.532;2023-12-14T12:12:40;98813.97;;;7.40;100.00
80927;BME280;70385;44.538;18.532;2023-12-14T12:15:07;98817.34;;;7.42;100.00
80927;BME280;70385;44.538;18.532;2023-12-14T12:17:32;98812.78;;;7.47;100.00
80927;BME280;70385;44.538;18.532;2023-12-14T12:20:32;98828.59;;;7.42;100.00
80927;BME280;70385;44.538;18.532;2023-12-14T12:22:59;98818.25;;;7.41;100.00
80927;BME280;70385;44.538;18.532;2023-12-14T12:25:29;98820.72;;;7.44;100.00
80927;BME280;70385;44.538;18.532;2023-12-14T12:28:00;98820.84;;;7.41;100.00
80927;BME280;70385;44.538;18.532;2023-12-14T12:30:27;98814.81;;;7.40;100.00
80927;BME280;70385;44.538;18.532;2023-12-14T12:33:01;98812.97;;;7.42;100.00
80927;BME280;70385;44.538;18.532;2023-12-14T12:35:27;98823.00;;;7.51;100.00
80927;BME280;70385;44.538;18.532;2023-12-14T12:37:55;98823.84;;;7.52;100.00
80927;BME280;70385;44.538;18.532;2023-12-14T12:44:52;98833.06;;;7.60;100.00
80927;BME280;70385;44.538;18.532;2023-12-14T12:47:18;98827.00;;;7.60;100.00
80927;BME280;70385;44.538;18.532;2023-12-14T12:49:44;98823.63;;;7.58;100.00
80927;BME280;70385;44.538;18.532;2023-12-14T12:52:10;98823.69;;;7.56;100.00
80927;BME280;70385;44.538;18.532;2023-12-14T12:54:36;98816.66;;;7.58;100.00
80927;BME280;70385;44.538;18.532;2023-12-14T12:57:04;98827.06;;;7.58;100.00
80927;BME280;70385;44.538;18.532;2023-12-14T12:59:30;98825.31;;;7.59;100.00
80927;BME280;70385;44.538;18.532;2023-12-14T13:01:56;98823.81;;;7.53;100.00
80927;BME280;70385;44.538;18.532;2023-12-14T13:04:24;98813.16;;;7.59;100.00
80927;BME280;70385;44.538;18.532;2023-12-14T13:07:21;98820.09;;;7.59;100.00
80927;BME280;70385;44.538;18.532;2023-12-14T13:09:48;98828.84;;;7.58;100.00
80927;BME280;70385;44.538;18.532;2023-12-14T13:12:15;98827.06;;;7.58;100.00